sensor_id;sensor_type;location;lat;lon;timestamp;temperature;humidity
26182;DHT22;13927;51.534;11.866;2022-08-19T03:05:00;19.60;99.90
26182;DHT22;13927;51.534;11.866;2022-08-19T03:07:26;20.30;99.90
26182;DHT22;13927;51.534;11.866;2022-08-19T03:09:52;20.20;99.90
26182;DHT22;13927;51.534;11.866;2022-08-19T03:12:18;20.20;99.90
26182;DHT22;13927;51.534;11.866;2022-08-19T03:14:43;20.20;99.90
26182;DHT22;13927;51.534;11.866;2022-08-19T03:17:11;20.20;99.90
26182;DHT22;13927;51.534;11.866;2022-08-19T03:19:38;20.20;99.90
26182;DHT22;13927;51.534;11.866;2022-08-19T03:22:04;20.20;99.90
26182;DHT22;13927;51.534;11.866;2022-08-19T03:24:31;20.10;99.90
26182;DHT22;13927;51.534;11.866;2022-08-19T03:26:57;20.10;99.90
26182;DHT22;13927;51.534;11.866;2022-08-19T03:29:25;20.20;99.90
26182;DHT22;13927;51.534;11.866;2022-08-19T03:31:52;20.20;99.90
26182;DHT22;13927;51.534;11.866;2022-08-19T03:34:24;20.20;99.90
26182;DHT22;13927;51.534;11.866;2022-08-19T03:36:56;20.20;99.90
26182;DHT22;13927;51.534;11.866;2022-08-19T03:39:24;20.20;99.90
26182;DHT22;13927;51.534;11.866;2022-08-19T03:41:52;20.20;99.90
26182;DHT22;13927;51.534;11.866;2022-08-19T03:44:21;20.20;99.90
26182;DHT22;13927;51.534;11.866;2022-08-19T03:46:50;20.20;99.90
26182;DHT22;13927;51.534;11.866;2022-08-19T03:49:22;20.20;99.90
26182;DHT22;13927;51.534;11.866;2022-08-19T03:51:50;20.20;99.90
26182;DHT22;13927;51.534;11.866;2022-08-19T03:54:19;20.10;99.90
26182;DHT22;13927;51.534;11.866;2022-08-19T03:56:47;20.30;99.90
26182;DHT22;13927;51.534;11.866;2022-08-19T03:59:17;20.30;99.90
26182;DHT22;13927;51.534;11.866;2022-08-19T04:01:45;20.40;99.90
26182;DHT22;13927;51.534;11.866;2022-08-19T04:04:11;20.40;99.90
26182;DHT22;13927;51.534;11.866;2022-08-19T04:06:38;20.40;99.90
26182;DHT22;13927;51.534;11.866;2022-08-19T04:09:09;20.50;99.90
26182;DHT22;13927;51.534;11.866;2022-08-19T04:11:39;20.50;99.90
26182;DHT22;13927;51.534;11.866;2022-08-19T04:14:08;20.50;99.90
26182;DHT22;13927;51.534;11.866;2022-08-19T04:16:36;20.50;99.90
26182;DHT22;13927;51.534;11.866;2022-08-19T04:19:04;20.50;99.90
26182;DHT22;13927;51.534;11.866;2022-08-19T04:21:31;20.50;99.90
26182;DHT22;13927;51.534;11.866;2022-08-19T04:23:57;20.50;99.90
26182;DHT22;13927;51.534;11.866;2022-08-19T04:26:26;20.60;99.90
26182;DHT22;13927;51.534;11.866;2022-08-19T04:28:58;20.60;99.90
26182;DHT22;13927;51.534;11.866;2022-08-19T04:31:29;20.70;99.90
26182;DHT22;13927;51.534;11.866;2022-08-19T04:33:56;20.70;99.90
26182;DHT22;13927;51.534;11.866;2022-08-19T04:36:26;20.70;99.90
26182;DHT22;13927;51.534;11.866;2022-08-19T04:39:00;20.70;99.90
26182;DHT22;13927;51.534;11.866;2022-08-19T04:41:34;20.60;99.90
26182;DHT22;13927;51.534;11.866;2022-08-19T04:44:19;20.50;99.90
26182;DHT22;13927;51.534;11.866;2022-08-19T04:46:46;20.40;99.90
26182;DHT22;13927;51.534;11.866;2022-08-19T04:49:14;20.40;99.90
26182;DHT22;13927;51.534;11.866;2022-08-19T04:51:44;20.30;99.90
26182;DHT22;13927;51.534;11.866;2022-08-19T04:54:12;20.30;99.90
26182;DHT22;13927;51.534;11.866;2022-08-19T04:56:40;20.30;99.90
26182;DHT22;13927;51.534;11.866;2022-08-19T04:59:06;20.20;99.90
26182;DHT22;13927;51.534;11.866;2022-08-19T05:01:33;20.20;99.90
26182;DHT22;13927;51.534;11.866;2022-08-19T05:04:03;20.20;99.90
26182;DHT22;13927;51.534;11.866;2022-08-19T05:06:31;20.20;99.90
26182;DHT22;13927;51.534;11.866;2022-08-19T05:09:00;20.20;99.90
26182;DHT22;13927;51.534;11.866;2022-08-19T05:11:31;20.20;99.90
26182;DHT22;13927;51.534;11.866;2022-08-19T05:13:59;20.20;99.90
26182;DHT22;13927;51.534;11.866;2022-08-19T05:16:26;20.20;99.90
26182;DHT22;13927;51.534;11.866;2022-08-19T05:18:53;20.20;99.90
26182;DHT22;13927;51.534;11.866;2022-08-19T05:21:40;20.30;99.90
26182;DHT22;13927;51.534;11.866;2022-08-19T05:24:28;20.30;99.90
26182;DHT22;13927;51.534;11.866;2022-08-19T05:26:55;20.30;99.90
26182;DHT22;13927;51.534;11.866;2022-08-19T05:29:26;20.30;99.90
26182;DHT22;13927;51.534;11.866;2022-08-19T05:31:54;20.40;99.90
26182;DHT22;13927;51.534;11.866;2022-08-19T05:34:22;20.40;99.90
26182;DHT22;13927;51.534;11.866;2022-08-19T05:36:57;20.40;99.90
26182;DHT22;13927;51.534;11.866;2022-08-19T05:39:28;20.40;99.90
26182;DHT22;13927;51.534;11.866;2022-08-19T05:41:59;20.40;99.90
26182;DHT22;13927;51.534;11.866;2022-08-19T05:44:34;20.40;99.90
26182;DHT22;13927;51.534;11.866;2022-08-19T05:47:21;20.40;99.90
26182;DHT22;13927;51.534;11.866;2022-08-19T05:49:58;20.40;99.90
26182;DHT22;13927;51.534;11.866;2022-08-19T05:52:28;20.40;99.90
26182;DHT22;13927;51.534;11.866;2022-08-19T05:54:54;20.40;99.90
26182;DHT22;13927;51.534;11.866;2022-08-19T05:57:21;20.30;99.90
26182;DHT22;13927;51.534;11.866;2022-08-19T05:59:46;20.40;99.90
26182;DHT22;13927;51.534;11.866;2022-08-19T06:02:13;20.40;99.90
26182;DHT22;13927;51.534;11.866;2022-08-19T06:04:39;20.30;99.90
26182;DHT22;13927;51.534;11.866;2022-08-19T06:07:08;20.40;99.90
26182;DHT22;13927;51.534;11.866;2022-08-19T06:09:35;20.40;99.90
26182;DHT22;13927;51.534;11.866;2022-08-19T06:12:02;20.40;99.90
26182;DHT22;13927;51.534;11.866;2022-08-19T06:14:32;20.50;99.90
26182;DHT22;13927;51.534;11.866;2022-08-19T06:17:00;20.40;99.90
26182;DHT22;13927;51.534;11.866;2022-08-19T06:19:28;20.40;99.90
26182;DHT22;13927;51.534;11.866;2022-08-19T06:21:59;20.40;99.90
26182;DHT22;13927;51.534;11.866;2022-08-19T06:24:27;20.50;99.90
26182;DHT22;13927;51.534;11.866;2022-08-19T06:26:56;20.60;99.90
26182;DHT22;13927;51.534;11.866;2022-08-19T06:29:24;20.50;99.90
26182;DHT22;13927;51.534;11.866;2022-08-19T06:31:53;20.50;99.90
26182;DHT22;13927;51.534;11.866;2022-08-19T06:34:25;20.50;99.90
26182;DHT22;13927;51.534;11.866;2022-08-19T06:36:54;20.60;99.90
26182;DHT22;13927;51.534;11.866;2022-08-19T06:39:26;20.80;99.90
26182;DHT22;13927;51.534;11.866;2022-08-19T06:41:58;20.80;99.90
26182;DHT22;13927;51.534;11.866;2022-08-19T06:44:28;20.80;99.90
26182;DHT22;13927;51.534;11.866;2022-08-19T06:46:56;20.80;99.90
26182;DHT22;13927;51.534;11.866;2022-08-19T06:49:22;20.70;99.90
26182;DHT22;13927;51.534;11.866;2022-08-19T06:51:49;20.80;99.90
26182;DHT22;13927;51.534;11.866;2022-08-19T06:54:17;20.80;99.90
26182;DHT22;13927;51.534;11.866;2022-08-19T06:56:44;20.90;99.90
26182;DHT22;13927;51.534;11.866;2022-08-19T06:59:14;20.90;99.90
26182;DHT22;13927;51.534;11.866;2022-08-19T07:01:49;21.00;99.90
26182;DHT22;13927;51.534;11.866;2022-08-19T07:04:18;21.00;99.90
26182;DHT22;13927;51.534;11.866;2022-08-19T07:06:46;20.90;99.90
26182;DHT22;13927;51.534;11.866;2022-08-19T07:09:14;21.00;99.90
26182;DHT22;13927;51.534;11.866;2022-08-19T07:11:50;21.00;99.90
26182;DHT22;13927;51.534;11.866;2022-08-19T07:14:26;21.20;99.90
26182;DHT22;13927;51.534;11.866;2022-08-19T07:16:55;21.20;99.90
26182;DHT22;13927;51.534;11.866;2022-08-19T07:19:23;21.20;99.90
26182;DHT22;13927;51.534;11.866;2022-08-19T07:21:52;21.30;99.90
26182;DHT22;13927;51.534;11.866;2022-08-19T07:24:21;21.40;99.90
26182;DHT22;13927;51.534;11.866;2022-08-19T07:26:50;21.50;99.90
26182;DHT22;13927;51.534;11.866;2022-08-19T07:29:19;21.50;99.90
26182;DHT22;13927;51.534;11.866;2022-08-19T07:31:49;21.30;99.90
26182;DHT22;13927;51.534;11.866;2022-08-19T07:34:16;21.20;99.90
26182;DHT22;13927;51.534;11.866;2022-08-19T07:36:43;21.10;99.90
26182;DHT22;13927;51.534;11.866;2022-08-19T07:39:16;21.00;99.90
26182;DHT22;13927;51.534;11.866;2022-08-19T07:41:43;20.90;99.90
26182;DHT22;13927;51.534;11.866;2022-08-19T07:44:11;20.70;99.90
26182;DHT22;13927;51.534;11.866;2022-08-19T07:46:40;20.60;99.90
26182;DHT22;13927;51.534;11.866;2022-08-19T07:49:09;20.60;99.90
26182;DHT22;13927;51.534;11.866;2022-08-19T07:51:39;20.50;99.90
26182;DHT22;13927;51.534;11.866;2022-08-19T07:54:05;20.30;99.90
26182;DHT22;13927;51.534;11.866;2022-08-19T07:56:31;20.30;99.90
26182;DHT22;13927;51.534;11.866;2022-08-19T07:58:57;20.20;99.90
26182;DHT22;13927;51.534;11.866;2022-08-19T08:01:25;20.30;99.90
26182;DHT22;13927;51.534;11.866;2022-08-19T08:03:57;20.30;99.90
26182;DHT22;13927;51.534;11.866;2022-08-19T08:06:41;20.30;99.90
26182;DHT22;13927;51.534;11.866;2022-08-19T08:09:30;20.30;99.90
26182;DHT22;13927;51.534;11.866;2022-08-19T08:12:05;20.20;99.90
26182;DHT22;13927;51.534;11.866;2022-08-19T08:14:43;20.30;99.90
26182;DHT22;13927;51.534;11.866;2022-08-19T08:17:16;20.30;99.90
26182;DHT22;13927;51.534;11.866;2022-08-19T08:19:49;20.40;99.90
26182;DHT22;13927;51.534;11.866;2022-08-19T08:22:17;20.50;99.90
26182;DHT22;13927;51.534;11.866;2022-08-19T08:25:18;20.60;99.90
26182;DHT22;13927;51.534;11.866;2022-08-19T08:27:46;20.60;99.90
26182;DHT22;13927;51.534;11.866;2022-08-19T08:30:23;20.50;99.90
26182;DHT22;13927;51.534;11.866;2022-08-19T08:32:51;20.40;99.90
26182;DHT22;13927;51.534;11.866;2022-08-19T08:35:22;20.40;99.90
26182;DHT22;13927;51.534;11.866;2022-08-19T08:37:50;20.50;99.90
26182;DHT22;13927;51.534;11.866;2022-08-19T08:46:06;20.50;99.90
26182;DHT22;13927;51.534;11.866;2022-08-19T08:49:07;20.50;99.90
26182;DHT22;13927;51.534;11.866;2022-08-19T08:54:54;20.50;99.90
26182;DHT22;13927;51.534;11.866;2022-08-19T08:57:42;20.50;99.90
26182;DHT22;13927;51.534;11.866;2022-08-19T09:00:35;20.50;99.90
26182;DHT22;13927;51.534;11.866;2022-08-19T09:03:03;20.40;99.90
26182;DHT22;13927;51.534;11.866;2022-08-19T09:10:56;20.20;99.90
26182;DHT22;13927;51.534;11.866;2022-08-19T09:16:22;20.10;99.90
26182;DHT22;13927;51.534;11.866;2022-08-19T09:18:54;20.10;99.90
26182;DHT22;13927;51.534;11.866;2022-08-19T09:21:24;20.00;99.90
26182;DHT22;13927;51.534;11.866;2022-08-19T09:23:53;20.00;99.90
26182;DHT22;13927;51.534;11.866;2022-08-19T09:26:20;20.00;99.90
26182;DHT22;13927;51.534;11.866;2022-08-19T09:28:49;20.10;99.90
26182;DHT22;13927;51.534;11.866;2022-08-19T09:31:22;20.20;99.90
26182;DHT22;13927;51.534;11.866;2022-08-19T09:33:49;20.10;99.90
26182;DHT22;13927;51.534;11.866;2022-08-19T09:36:17;20.10;99.90
26182;DHT22;13927;51.534;11.866;2022-08-19T09:38:45;20.10;99.90
26182;DHT22;13927;51.534;11.866;2022-08-19T09:41:18;20.00;99.90
26182;DHT22;13927;51.534;11.866;2022-08-19T09:43:48;20.10;99.90
26182;DHT22;13927;51.534;11.866;2022-08-19T09:46:19;20.10;99.90
26182;DHT22;13927;51.534;11.866;2022-08-19T09:48:49;20.20;99.90
26182;DHT22;13927;51.534;11.866;2022-08-19T09:51:22;20.20;99.90
26182;DHT22;13927;51.534;11.866;2022-08-19T09:53:52;20.30;99.90
26182;DHT22;13927;51.534;11.866;2022-08-19T09:56:20;20.30;99.90
26182;DHT22;13927;51.534;11.866;2022-08-19T09:58:48;20.30;99.90
26182;DHT22;13927;51.534;11.866;2022-08-19T10:01:21;20.30;99.90
26182;DHT22;13927;51.534;11.866;2022-08-19T10:03:51;20.30;99.90
26182;DHT22;13927;51.534;11.866;2022-08-19T10:06:20;20.30;99.90
26182;DHT22;13927;51.534;11.866;2022-08-19T10:08:48;20.20;99.90
26182;DHT22;13927;51.534;11.866;2022-08-19T10:11:14;20.10;99.90
26182;DHT22;13927;51.534;11.866;2022-08-19T10:13:42;20.10;99.90
26182;DHT22;13927;51.534;11.866;2022-08-19T10:16:14;20.20;99.90
26182;DHT22;13927;51.534;11.866;2022-08-19T10:18:43;20.20;99.90
26182;DHT22;13927;51.534;11.866;2022-08-19T10:23:41;20.30;99.90
26182;DHT22;13927;51.534;11.866;2022-08-19T10:26:14;20.40;99.90
26182;DHT22;13927;51.534;11.866;2022-08-19T10:28:41;20.50;99.90
26182;DHT22;13927;51.534;11.866;2022-08-19T10:31:31;20.50;99.90
26182;DHT22;13927;51.534;11.866;2022-08-19T10:33:56;20.60;99.90
26182;DHT22;13927;51.534;11.866;2022-08-19T10:36:28;20.60;99.90
26182;DHT22;13927;51.534;11.866;2022-08-19T10:38:57;20.70;99.90
26182;DHT22;13927;51.534;11.866;2022-08-19T10:41:32;20.70;99.90
26182;DHT22;13927;51.534;11.866;2022-08-19T10:44:05;20.70;99.90
26182;DHT22;13927;51.534;11.866;2022-08-19T10:46:35;20.80;99.90
26182;DHT22;13927;51.534;11.866;2022-08-19T10:49:05;20.70;99.90
26182;DHT22;13927;51.534;11.866;2022-08-19T10:51:32;20.90;99.90
26182;DHT22;13927;51.534;11.866;2022-08-19T10:54:16;20.90;99.90
26182;DHT22;13927;51.534;11.866;2022-08-19T10:56:45;20.80;99.90
26182;DHT22;13927;51.534;11.866;2022-08-19T10:59:19;20.80;99.90
26182;DHT22;13927;51.534;11.866;2022-08-19T11:01:46;20.90;99.90
26182;DHT22;13927;51.534;11.866;2022-08-19T11:04:12;20.90;99.90
26182;DHT22;13927;51.534;11.866;2022-08-19T11:06:47;21.20;99.90
26182;DHT22;13927;51.534;11.866;2022-08-19T11:09:16;21.40;99.90
26182;DHT22;13927;51.534;11.866;2022-08-19T11:11:46;21.60;99.90
26182;DHT22;13927;51.534;11.866;2022-08-19T11:14:14;21.80;99.90
26182;DHT22;13927;51.534;11.866;2022-08-19T11:16:42;22.00;99.90
26182;DHT22;13927;51.534;11.866;2022-08-19T11:19:10;22.30;99.90
26182;DHT22;13927;51.534;11.866;2022-08-19T11:21:41;22.60;99.90
26182;DHT22;13927;51.534;11.866;2022-08-19T11:24:11;22.80;99.90
26182;DHT22;13927;51.534;11.866;2022-08-19T11:26:41;23.00;99.90
26182;DHT22;13927;51.534;11.866;2022-08-19T11:29:10;22.80;99.90
26182;DHT22;13927;51.534;11.866;2022-08-19T11:31:39;22.60;99.90
26182;DHT22;13927;51.534;11.866;2022-08-19T11:34:09;22.50;99.90
26182;DHT22;13927;51.534;11.866;2022-08-19T11:36:40;22.50;99.90
26182;DHT22;13927;51.534;11.866;2022-08-19T11:39:09;22.50;99.90
26182;DHT22;13927;51.534;11.866;2022-08-19T11:41:36;22.50;99.90
26182;DHT22;13927;51.534;11.866;2022-08-19T11:44:04;22.40;99.90
26182;DHT22;13927;51.534;11.866;2022-08-19T11:46:33;22.50;99.90
26182;DHT22;13927;51.534;11.866;2022-08-19T11:49:00;22.60;99.90
26182;DHT22;13927;51.534;11.866;2022-08-19T11:51:30;22.70;99.90
26182;DHT22;13927;51.534;11.866;2022-08-19T11:53:57;22.80;99.90
26182;DHT22;13927;51.534;11.866;2022-08-19T11:56:25;22.80;99.90
26182;DHT22;13927;51.534;11.866;2022-08-19T11:58:52;22.90;99.90
26182;DHT22;13927;51.534;11.866;2022-08-19T12:01:21;23.00;99.90
26182;DHT22;13927;51.534;11.866;2022-08-19T12:03:50;23.00;99.90
26182;DHT22;13927;51.534;11.866;2022-08-19T12:06:20;22.80;99.90
26182;DHT22;13927;51.534;11.866;2022-08-19T12:08:51;22.70;99.90
26182;DHT22;13927;51.534;11.866;2022-08-19T12:11:17;22.60;99.90
26182;DHT22;13927;51.534;11.866;2022-08-19T12:13:46;22.60;99.90
26182;DHT22;13927;51.534;11.866;2022-08-19T12:16:18;22.60;99.90
26182;DHT22;13927;51.534;11.866;2022-08-19T12:18:55;22.60;99.90
26182;DHT22;13927;51.534;11.866;2022-08-19T12:21:25;22.80;99.90
26182;DHT22;13927;51.534;11.866;2022-08-19T12:24:07;22.60;99.90
26182;DHT22;13927;51.534;11.866;2022-08-19T12:26:34;22.70;99.90
26182;DHT22;13927;51.534;11.866;2022-08-19T12:29:00;22.90;99.90
26182;DHT22;13927;51.534;11.866;2022-08-19T12:31:27;22.90;99.90
26182;DHT22;13927;51.534;11.866;2022-08-19T12:33:54;23.00;99.90
26182;DHT22;13927;51.534;11.866;2022-08-19T12:36:20;23.10;99.90
26182;DHT22;13927;51.534;11.866;2022-08-19T12:38:47;23.20;99.90
26182;DHT22;13927;51.534;11.866;2022-08-19T12:41:18;23.10;99.90
26182;DHT22;13927;51.534;11.866;2022-08-19T12:43:44;23.00;99.90
26182;DHT22;13927;51.534;11.866;2022-08-19T12:46:11;22.90;99.90
26182;DHT22;13927;51.534;11.866;2022-08-19T12:48:38;22.80;99.90
26182;DHT22;13927;51.534;11.866;2022-08-19T12:51:11;22.70;99.90
26182;DHT22;13927;51.534;11.866;2022-08-19T12:53:38;22.60;99.90
26182;DHT22;13927;51.534;11.866;2022-08-19T12:56:04;22.60;99.90
26182;DHT22;13927;51.534;11.866;2022-08-19T12:58:31;22.80;99.90
26182;DHT22;13927;51.534;11.866;2022-08-19T13:01:06;22.80;99.90
26182;DHT22;13927;51.534;11.866;2022-08-19T13:03:33;22.80;99.90
26182;DHT22;13927;51.534;11.866;2022-08-19T13:05:59;22.90;99.90
26182;DHT22;13927;51.534;11.866;2022-08-19T13:08:25;23.00;99.90
26182;DHT22;13927;51.534;11.866;2022-08-19T13:10:52;22.70;99.90
26182;DHT22;13927;51.534;11.866;2022-08-19T13:13:18;22.80;99.90
26182;DHT22;13927;51.534;11.866;2022-08-19T13:15:44;22.60;99.90
26182;DHT22;13927;51.534;11.866;2022-08-19T13:18:11;22.50;99.90
26182;DHT22;13927;51.534;11.866;2022-08-19T13:20:38;22.50;99.90
26182;DHT22;13927;51.534;11.866;2022-08-19T13:23:09;22.60;99.90
26182;DHT22;13927;51.534;11.866;2022-08-19T13:25:35;22.60;99.90
26182;DHT22;13927;51.534;11.866;2022-08-19T13:28:02;22.50;99.90
26182;DHT22;13927;51.534;11.866;2022-08-19T13:30:28;22.40;99.90
26182;DHT22;13927;51.534;11.866;2022-08-19T13:33:12;22.50;99.90
26182;DHT22;13927;51.534;11.866;2022-08-19T13:35:57;22.60;99.90
26182;DHT22;13927;51.534;11.866;2022-08-19T13:38:24;22.50;99.90
26182;DHT22;13927;51.534;11.866;2022-08-19T13:40:51;22.50;99.90
26182;DHT22;13927;51.534;11.866;2022-08-19T13:43:19;22.60;99.90
26182;DHT22;13927;51.534;11.866;2022-08-19T13:45:47;22.60;99.90
26182;DHT22;13927;51.534;11.866;2022-08-19T13:48:13;22.60;99.90
26182;DHT22;13927;51.534;11.866;2022-08-19T13:50:43;22.70;99.90
26182;DHT22;13927;51.534;11.866;2022-08-19T13:56:47;22.80;99.90
26182;DHT22;13927;51.534;11.866;2022-08-19T13:59:13;22.70;99.90
26182;DHT22;13927;51.534;11.866;2022-08-19T14:01:40;22.70;99.90
26182;DHT22;13927;51.534;11.866;2022-08-19T14:04:07;22.70;99.90
26182;DHT22;13927;51.534;11.866;2022-08-19T14:06:34;22.70;99.90
26182;DHT22;13927;51.534;11.866;2022-08-19T14:09:01;22.80;99.90
26182;DHT22;13927;51.534;11.866;2022-08-19T14:11:28;22.90;99.90
26182;DHT22;13927;51.534;11.866;2022-08-19T14:13:54;22.90;99.90
26182;DHT22;13927;51.534;11.866;2022-08-19T14:16:20;22.80;99.90
26182;DHT22;13927;51.534;11.866;2022-08-19T14:18:48;22.80;99.90
26182;DHT22;13927;51.534;11.866;2022-08-19T14:21:16;22.80;99.90
26182;DHT22;13927;51.534;11.866;2022-08-19T14:23:45;22.70;99.90
26182;DHT22;13927;51.534;11.866;2022-08-19T14:26:15;22.70;99.90
26182;DHT22;13927;51.534;11.866;2022-08-19T14:28:44;22.70;99.90
26182;DHT22;13927;51.534;11.866;2022-08-19T14:31:12;22.70;99.90
26182;DHT22;13927;51.534;11.866;2022-08-19T14:33:42;22.80;99.90
26182;DHT22;13927;51.534;11.866;2022-08-19T14:36:07;22.80;99.90
26182;DHT22;13927;51.534;11.866;2022-08-19T14:38:34;22.80;99.90
26182;DHT22;13927;51.534;11.866;2022-08-19T14:41:19;22.90;99.90
26182;DHT22;13927;51.534;11.866;2022-08-19T14:43:49;22.90;99.90
26182;DHT22;13927;51.534;11.866;2022-08-19T14:46:18;22.90;99.90
26182;DHT22;13927;51.534;11.866;2022-08-19T14:48:46;23.00;99.90
26182;DHT22;13927;51.534;11.866;2022-08-19T14:51:12;22.90;99.90
26182;DHT22;13927;51.534;11.866;2022-08-19T14:53:40;23.00;99.90
26182;DHT22;13927;51.534;11.866;2022-08-19T14:56:11;23.00;99.90
26182;DHT22;13927;51.534;11.866;2022-08-19T14:58:44;23.00;99.90
26182;DHT22;13927;51.534;11.866;2022-08-19T15:01:12;23.00;99.90
26182;DHT22;13927;51.534;11.866;2022-08-19T15:03:39;23.00;99.90
26182;DHT22;13927;51.534;11.866;2022-08-19T15:06:07;23.00;99.90
26182;DHT22;13927;51.534;11.866;2022-08-19T15:08:36;23.10;99.90
26182;DHT22;13927;51.534;11.866;2022-08-19T15:11:08;23.10;99.90
26182;DHT22;13927;51.534;11.866;2022-08-19T15:13:36;23.10;99.90
26182;DHT22;13927;51.534;11.866;2022-08-19T15:16:02;23.20;99.90
26182;DHT22;13927;51.534;11.866;2022-08-19T15:18:28;23.20;99.90
26182;DHT22;13927;51.534;11.866;2022-08-19T15:20:57;23.30;99.90
26182;DHT22;13927;51.534;11.866;2022-08-19T15:23:22;23.30;99.90
26182;DHT22;13927;51.534;11.866;2022-08-19T15:25:49;23.30;99.90
26182;DHT22;13927;51.534;11.866;2022-08-19T15:28:18;23.30;99.90
26182;DHT22;13927;51.534;11.866;2022-08-19T15:30:44;23.30;99.90
26182;DHT22;13927;51.534;11.866;2022-08-19T15:33:10;23.30;99.90
26182;DHT22;13927;51.534;11.866;2022-08-19T15:35:40;23.40;99.90
26182;DHT22;13927;51.534;11.866;2022-08-19T15:38:07;23.40;99.90
26182;DHT22;13927;51.534;11.866;2022-08-19T15:40:34;23.50;99.90
26182;DHT22;13927;51.534;11.866;2022-08-19T15:43:00;23.50;99.90
26182;DHT22;13927;51.534;11.866;2022-08-19T15:45:26;23.60;99.90
26182;DHT22;13927;51.534;11.866;2022-08-19T15:48:03;23.60;99.90
26182;DHT22;13927;51.534;11.866;2022-08-19T15:50:30;23.60;99.90
26182;DHT22;13927;51.534;11.866;2022-08-19T15:53:02;23.70;99.90
26182;DHT22;13927;51.534;11.866;2022-08-19T15:55:31;23.70;99.90
26182;DHT22;13927;51.534;11.866;2022-08-19T15:58:01;23.80;99.90
26182;DHT22;13927;51.534;11.866;2022-08-19T16:00:47;23.80;99.90
26182;DHT22;13927;51.534;11.866;2022-08-19T16:03:31;23.70;99.90
26182;DHT22;13927;51.534;11.866;2022-08-19T16:06:15;23.70;99.90
26182;DHT22;13927;51.534;11.866;2022-08-19T16:09:06;23.70;99.90
26182;DHT22;13927;51.534;11.866;2022-08-19T16:11:34;23.80;99.90
26182;DHT22;13927;51.534;11.866;2022-08-19T16:14:01;23.70;99.90
26182;DHT22;13927;51.534;11.866;2022-08-19T16:16:31;23.70;99.90
26182;DHT22;13927;51.534;11.866;2022-08-19T16:18:59;23.70;99.90
26182;DHT22;13927;51.534;11.866;2022-08-19T16:21:28;23.60;99.90
26182;DHT22;13927;51.534;11.866;2022-08-19T16:23:59;23.60;99.90
26182;DHT22;13927;51.534;11.866;2022-08-19T16:26:26;23.60;99.90
26182;DHT22;13927;51.534;11.866;2022-08-19T16:28:57;23.50;99.90
26182;DHT22;13927;51.534;11.866;2022-08-19T16:31:24;23.60;99.90
26182;DHT22;13927;51.534;11.866;2022-08-19T16:33:50;23.60;99.90
26182;DHT22;13927;51.534;11.866;2022-08-19T16:36:16;23.60;99.90
26182;DHT22;13927;51.534;11.866;2022-08-19T16:38:44;23.60;99.90
26182;DHT22;13927;51.534;11.866;2022-08-19T16:41:11;23.60;99.90
26182;DHT22;13927;51.534;11.866;2022-08-19T16:43:39;23.60;99.90
26182;DHT22;13927;51.534;11.866;2022-08-19T16:46:08;23.60;99.90
26182;DHT22;13927;51.534;11.866;2022-08-19T16:48:35;23.60;99.90
26182;DHT22;13927;51.534;11.866;2022-08-19T16:51:11;23.50;99.90
26182;DHT22;13927;51.534;11.866;2022-08-19T16:53:40;23.50;99.90
26182;DHT22;13927;51.534;11.866;2022-08-19T16:56:07;23.40;99.90
26182;DHT22;13927;51.534;11.866;2022-08-19T16:58:34;23.50;99.90
26182;DHT22;13927;51.534;11.866;2022-08-19T17:01:07;23.50;99.90
26182;DHT22;13927;51.534;11.866;2022-08-19T17:03:35;23.40;99.90
26182;DHT22;13927;51.534;11.866;2022-08-19T17:06:03;23.40;99.90
26182;DHT22;13927;51.534;11.866;2022-08-19T17:08:36;23.50;99.90
26182;DHT22;13927;51.534;11.866;2022-08-19T17:11:02;23.50;99.90
26182;DHT22;13927;51.534;11.866;2022-08-19T17:13:28;23.50;99.90
26182;DHT22;13927;51.534;11.866;2022-08-19T17:15:54;23.50;99.90
26182;DHT22;13927;51.534;11.866;2022-08-19T17:18:21;23.50;99.90
26182;DHT22;13927;51.534;11.866;2022-08-19T17:20:49;23.50;99.90
26182;DHT22;13927;51.534;11.866;2022-08-19T17:23:16;23.50;99.90
26182;DHT22;13927;51.534;11.866;2022-08-19T17:25:43;23.50;99.90
26182;DHT22;13927;51.534;11.866;2022-08-19T17:28:18;23.50;99.90
26182;DHT22;13927;51.534;11.866;2022-08-19T17:30:48;23.40;99.90
26182;DHT22;13927;51.534;11.866;2022-08-19T17:33:17;23.40;99.90
26182;DHT22;13927;51.534;11.866;2022-08-19T17:35:43;23.40;99.90
26182;DHT22;13927;51.534;11.866;2022-08-19T17:38:14;23.40;99.90
26182;DHT22;13927;51.534;11.866;2022-08-19T17:40:42;23.30;99.90
26182;DHT22;13927;51.534;11.866;2022-08-19T17:43:13;23.30;99.90
26182;DHT22;13927;51.534;11.866;2022-08-19T17:45:42;23.30;99.90
26182;DHT22;13927;51.534;11.866;2022-08-19T17:48:11;23.30;99.90
26182;DHT22;13927;51.534;11.866;2022-08-19T17:50:37;23.20;99.90
26182;DHT22;13927;51.534;11.866;2022-08-19T17:53:07;23.20;99.90
26182;DHT22;13927;51.534;11.866;2022-08-19T17:55:33;23.20;99.90
26182;DHT22;13927;51.534;11.866;2022-08-19T17:57:59;23.10;99.90
26182;DHT22;13927;51.534;11.866;2022-08-19T18:00:25;23.10;99.90
26182;DHT22;13927;51.534;11.866;2022-08-19T18:03:04;23.10;99.90
26182;DHT22;13927;51.534;11.866;2022-08-19T18:05:34;23.10;99.90
26182;DHT22;13927;51.534;11.866;2022-08-19T18:08:10;23.10;99.90
26182;DHT22;13927;51.534;11.866;2022-08-19T18:10:37;23.10;99.90
26182;DHT22;13927;51.534;11.866;2022-08-19T18:13:03;23.00;99.90
26182;DHT22;13927;51.534;11.866;2022-08-19T18:15:29;23.00;99.90
26182;DHT22;13927;51.534;11.866;2022-08-19T18:17:55;22.90;99.90
26182;DHT22;13927;51.534;11.866;2022-08-19T18:20:22;22.90;99.90
26182;DHT22;13927;51.534;11.866;2022-08-19T18:22:48;22.80;99.90
26182;DHT22;13927;51.534;11.866;2022-08-19T18:25:37;22.70;99.90
26182;DHT22;13927;51.534;11.866;2022-08-19T18:28:03;22.60;99.90
26182;DHT22;13927;51.534;11.866;2022-08-19T18:30:31;22.60;99.90
26182;DHT22;13927;51.534;11.866;2022-08-19T18:33:00;22.50;99.90
26182;DHT22;13927;51.534;11.866;2022-08-19T18:35:29;22.50;99.90
26182;DHT22;13927;51.534;11.866;2022-08-19T18:37:58;22.40;99.90
26182;DHT22;13927;51.534;11.866;2022-08-19T18:40:27;22.40;99.90
26182;DHT22;13927;51.534;11.866;2022-08-19T18:43:13;22.40;99.90
26182;DHT22;13927;51.534;11.866;2022-08-19T18:45:48;22.30;99.90
26182;DHT22;13927;51.534;11.866;2022-08-19T18:48:34;22.30;99.90
26182;DHT22;13927;51.534;11.866;2022-08-19T18:51:19;22.20;99.90
26182;DHT22;13927;51.534;11.866;2022-08-19T18:53:47;22.20;99.90
26182;DHT22;13927;51.534;11.866;2022-08-19T18:56:15;22.20;99.90
26182;DHT22;13927;51.534;11.866;2022-08-19T18:58:43;22.20;99.90